Etusivu
METAR-TAF:

METAR-TAF

Lentoasemat :

Waukegan Regional Airport

Waukegan, Illinois, Yhdysvallat

Leveyspiiri: 42-25N, Pituuspiiri: 087-52W, korkeus merenpinnasta: 222 m

Tämänhetkinen sää

Tämä raportti tehtiin 37 minuuttia sitten, kello 05.55 UTC
tyyntä
Lämpötila -1°C
Kosteus 93%
Ilmanpaine 1020 hPa
Näkyvyys: 11.3 km
selkeää

METAR: KUGN 020555Z AUTO 00000KT 7SM CLR M01/M02 A3013 RMK AO2 SLP212 T10111017 10050 21011 400891011 55000

Aika: 01:32 (06:32 UTC)


TAF: puuttuu

Säähavainnot ja -ennusteet yli 4000 lentoasemalta (METAR- ja TAF-raportit).

Käytössä olevat sääasemat on merkitty karttaan keltaisilla ja punaisilla pisteillä.

Aseta hiiri pisteen päälle nähdäksesi sääaseman nimen.

Klikkaa sitten nähdäksesi säähavainnot ja -ennusteet.

Kartan vaihtaminen: klikkaa mustalla rastilla varustettuja vihreitä pisteitä, niin voit zoomata sisään; viivalla varustettua vihreää pistettä, niin voit zoomata ulos tai vihreitä nuolia, niin pääset viereisille kartoille.


METAR-TAF: